createdAt,value
2017-12-15T00:00:35.556Z,92.60
2017-12-15T00:03:03.768Z,78.73
2017-12-15T00:05:31.203Z,81.83
2017-12-15T00:07:58.641Z,73.10
2017-12-15T00:10:26.848Z,80.93
2017-12-15T00:12:54.284Z,86.07
2017-12-15T00:15:21.769Z,98.73
2017-12-15T00:17:49.211Z,87.07
2017-12-15T00:20:16.690Z,87.57
2017-12-15T00:22:44.141Z,87.57
2017-12-15T00:25:11.580Z,82.30
2017-12-15T00:27:38.997Z,82.47
2017-12-15T00:30:06.518Z,92.73
2017-12-15T00:32:33.954Z,88.63
2017-12-15T00:35:01.376Z,95.43
2017-12-15T00:37:29.603Z,98.93
2017-12-15T00:39:57.037Z,94.07
2017-12-15T00:42:24.468Z,91.73
2017-12-15T00:44:52.684Z,86.60
2017-12-15T00:47:20.168Z,92.63
2017-12-15T00:49:47.584Z,92.63
2017-12-15T00:52:15.021Z,86.10
2017-12-15T00:54:43.217Z,79.23
2017-12-15T00:57:12.625Z,85.80
2017-12-15T00:59:40.103Z,89.67
2017-12-15T01:02:07.526Z,88.30
2017-12-15T01:04:35.022Z,85.07
2017-12-15T01:07:03.175Z,103.00
2017-12-15T01:09:30.641Z,90.87
2017-12-15T01:11:58.081Z,103.33
2017-12-15T01:14:25.528Z,99.20
2017-12-15T01:16:53.017Z,93.10
2017-12-15T01:19:20.472Z,97.73
2017-12-15T01:21:47.914Z,91.87
2017-12-15T01:24:15.395Z,91.77
2017-12-15T01:26:42.824Z,88.90
2017-12-15T01:29:10.310Z,93.90
2017-12-15T01:31:37.746Z,98.73
2017-12-15T01:34:05.176Z,98.53
2017-12-15T01:36:33.388Z,119.93
2017-12-15T01:39:00.827Z,105.27
2017-12-15T01:41:28.307Z,121.77
2017-12-15T01:43:56.784Z,131.17
2017-12-15T01:46:24.221Z,114.47
2017-12-15T01:48:51.651Z,144.13
2017-12-15T01:51:19.867Z,131.30
2017-12-15T01:53:47.303Z,121.70
2017-12-15T01:56:14.745Z,129.87
2017-12-15T01:58:42.967Z,138.37
2017-12-15T02:01:10.396Z,148.17
2017-12-15T02:03:37.824Z,136.40
2017-12-15T02:06:06.061Z,136.83
2017-12-15T02:08:33.497Z,135.50
2017-12-15T02:11:00.929Z,134.53
2017-12-15T02:13:28.433Z,129.10
2017-12-15T02:15:55.871Z,130.27
2017-12-15T02:18:23.301Z,120.70
2017-12-15T02:20:50.749Z,130.30
2017-12-15T02:23:18.963Z,136.90
2017-12-15T02:25:46.396Z,136.50
2017-12-15T02:28:13.846Z,113.80
2017-12-15T02:30:42.055Z,123.33
2017-12-15T02:33:09.493Z,136.83
2017-12-15T02:35:36.969Z,123.33
2017-12-15T02:38:04.404Z,123.43
2017-12-15T02:40:31.832Z,131.27
2017-12-15T02:42:59.280Z,129.67
2017-12-15T02:45:26.712Z,120.40
2017-12-15T02:47:54.164Z,125.03
2017-12-15T02:50:21.598Z,123.67
2017-12-15T02:52:49.029Z,116.53
2017-12-15T02:55:17.236Z,116.53
2017-12-15T02:57:44.696Z,125.77
2017-12-15T03:00:12.139Z,117.37
2017-12-15T03:02:39.561Z,114.03
2017-12-15T03:05:08.506Z,116.27
2017-12-15T03:07:35.961Z,109.13
2017-12-15T03:10:03.414Z,110.47
2017-12-15T03:12:30.862Z,100.93
2017-12-15T03:14:58.293Z,112.90
2017-12-15T03:17:26.534Z,120.53
2017-12-15T03:19:53.993Z,126.00
2017-12-15T03:22:21.525Z,120.73
2017-12-15T03:24:49.038Z,115.27
2017-12-15T03:27:17.244Z,105.83
2017-12-15T03:29:44.669Z,113.73
2017-12-15T03:32:12.898Z,114.27
2017-12-15T03:34:40.344Z,116.57
2017-12-15T03:37:07.797Z,116.10
2017-12-15T03:39:35.268Z,100.63
2017-12-15T03:42:02.717Z,100.17
2017-12-15T03:44:30.172Z,108.07
2017-12-15T03:46:57.618Z,105.30
2017-12-15T03:49:25.092Z,104.00
2017-12-15T03:51:52.524Z,101.10
2017-12-15T03:54:19.960Z,94.90
2017-12-15T03:56:48.280Z,89.40
2017-12-15T03:59:15.725Z,90.27
2017-12-15T04:01:43.193Z,99.20
2017-12-15T04:04:10.620Z,93.03
2017-12-15T04:06:38.049Z,86.90
2017-12-15T04:09:05.481Z,78.03
2017-12-15T04:11:32.924Z,78.63
2017-12-15T04:14:00.369Z,75.80
2017-12-15T04:16:27.828Z,81.37
2017-12-15T04:18:55.263Z,78.00
2017-12-15T04:21:22.692Z,84.23
2017-12-15T04:23:50.929Z,92.77
2017-12-15T04:26:18.476Z,75.43
2017-12-15T04:28:45.909Z,75.80
2017-12-15T04:31:13.345Z,75.00
2017-12-15T04:33:41.672Z,73.23
2017-12-15T04:36:09.130Z,80.70
2017-12-15T04:38:36.561Z,74.90
2017-12-15T04:41:04.042Z,72.67
2017-12-15T04:43:31.472Z,68.27
2017-12-15T04:45:58.903Z,64.77
2017-12-15T04:48:27.128Z,65.33
2017-12-15T04:50:54.633Z,69.10
2017-12-15T04:53:22.833Z,67.90
2017-12-15T04:55:50.331Z,68.23
2017-12-15T04:58:17.771Z,69.93
2017-12-15T05:00:45.200Z,68.80
2017-12-15T05:03:13.516Z,71.27
2017-12-15T05:05:40.977Z,66.20
2017-12-15T05:08:08.413Z,71.70
2017-12-15T05:10:35.860Z,81.43
2017-12-15T05:13:03.293Z,72.37
2017-12-15T05:15:31.488Z,82.63
2017-12-15T05:17:58.932Z,72.63
2017-12-15T05:20:26.360Z,65.30
2017-12-15T05:22:53.881Z,75.70
2017-12-15T05:25:21.343Z,71.70
2017-12-15T05:27:48.773Z,74.27
2017-12-15T05:30:16.252Z,85.03
2017-12-15T05:32:43.692Z,78.50
2017-12-15T05:35:11.168Z,70.80
2017-12-15T05:37:38.600Z,66.60
2017-12-15T05:40:06.184Z,77.20
2017-12-15T05:42:33.601Z,71.33
2017-12-15T05:45:01.798Z,57.13
2017-12-15T05:47:29.249Z,71.03
2017-12-15T05:49:56.676Z,76.80
2017-12-15T05:52:24.901Z,70.80
2017-12-15T05:54:52.369Z,76.03
2017-12-15T05:57:19.817Z,77.40
2017-12-15T05:59:47.286Z,74.57
2017-12-15T06:02:14.745Z,84.60
2017-12-15T06:04:42.192Z,80.53
2017-12-15T06:07:09.629Z,89.97
2017-12-15T06:09:37.112Z,85.13
2017-12-15T06:12:04.553Z,92.07
2017-12-15T06:14:31.980Z,91.87
2017-12-15T06:16:59.472Z,85.40
2017-12-15T06:19:26.930Z,86.53
2017-12-15T06:21:54.360Z,81.87
2017-12-15T06:24:21.849Z,78.63
2017-12-15T06:26:49.281Z,83.70
2017-12-15T06:29:16.760Z,82.97
2017-12-15T06:31:44.201Z,73.67
2017-12-15T06:34:11.680Z,83.13
2017-12-15T06:36:39.109Z,78.17
2017-12-15T06:39:06.604Z,70.27
2017-12-15T06:41:34.040Z,72.47
2017-12-15T06:44:01.509Z,81.10
2017-12-15T06:46:29.066Z,69.53
2017-12-15T06:48:56.499Z,76.93
2017-12-15T06:51:23.976Z,72.67
2017-12-15T06:53:51.420Z,71.30
2017-12-15T06:56:18.851Z,71.33
2017-12-15T06:58:47.049Z,69.93
2017-12-15T07:01:14.514Z,67.20
2017-12-15T07:03:41.945Z,70.87
2017-12-15T07:06:09.376Z,73.07
2017-12-15T07:08:36.829Z,66.03
2017-12-15T07:11:04.369Z,85.13
2017-12-15T07:13:31.801Z,63.60
2017-12-15T07:15:59.246Z,75.13
2017-12-15T07:18:26.733Z,72.20
2017-12-15T07:20:54.203Z,65.07
2017-12-15T07:23:21.650Z,64.30
2017-12-15T07:25:49.101Z,68.83
2017-12-15T07:28:16.528Z,59.57
2017-12-15T07:30:43.972Z,63.57
2017-12-15T07:33:11.409Z,61.70
2017-12-15T07:35:39.646Z,73.07
2017-12-15T07:38:07.089Z,64.97
2017-12-15T07:40:34.533Z,67.43
2017-12-15T07:43:01.964Z,66.73
2017-12-15T07:45:30.186Z,66.87
2017-12-15T07:47:57.620Z,68.27
2017-12-15T07:50:25.049Z,64.60
2017-12-15T07:52:53.282Z,75.97
2017-12-15T07:55:20.708Z,66.77
2017-12-15T07:57:49.110Z,67.43
2017-12-15T08:00:16.553Z,72.17
2017-12-15T08:02:44.022Z,64.40
2017-12-15T08:05:11.480Z,65.10
2017-12-15T08:07:38.933Z,73.10
2017-12-15T08:10:06.393Z,65.93
2017-12-15T08:12:33.829Z,66.67
2017-12-15T08:15:01.316Z,84.37
2017-12-15T08:17:28.749Z,74.70
2017-12-15T08:19:56.180Z,78.93
2017-12-15T08:22:24.504Z,88.67
2017-12-15T08:24:51.938Z,84.03
2017-12-15T08:27:19.420Z,86.97
2017-12-15T08:29:46.867Z,85.23
2017-12-15T08:32:14.299Z,84.53
2017-12-15T08:34:42.490Z,84.40
2017-12-15T08:37:09.932Z,90.13
2017-12-15T08:39:37.360Z,84.87
2017-12-15T08:42:05.594Z,88.73
2017-12-15T08:44:33.049Z,86.43
2017-12-15T08:47:00.600Z,88.60
2017-12-15T08:49:28.016Z,91.87
2017-12-15T08:51:56.229Z,92.33
2017-12-15T08:54:23.660Z,77.90
2017-12-15T08:56:51.094Z,87.67
2017-12-15T08:59:18.541Z,98.13
2017-12-15T09:01:46.065Z,83.87
2017-12-15T09:04:19.284Z,80.07
2017-12-15T09:06:46.916Z,77.77
2017-12-15T09:09:14.363Z,83.30
2017-12-15T09:11:41.788Z,77.20
2017-12-15T09:14:09.991Z,85.03
2017-12-15T09:16:37.417Z,73.17
2017-12-15T09:19:05.770Z,95.50
2017-12-15T09:21:33.204Z,84.97
2017-12-15T09:24:00.652Z,80.90
2017-12-15T09:26:28.088Z,80.63
2017-12-15T09:28:55.512Z,73.67
2017-12-15T09:31:23.736Z,79.50
2017-12-15T09:33:51.159Z,77.93
2017-12-15T09:36:19.377Z,89.17
2017-12-15T09:38:46.832Z,91.97
2017-12-15T09:41:14.294Z,72.30
2017-12-15T09:43:41.725Z,86.80
2017-12-15T09:46:09.157Z,73.57
2017-12-15T09:48:37.366Z,71.87
2017-12-15T09:51:04.833Z,71.37
2017-12-15T09:53:32.265Z,71.50
2017-12-15T09:55:59.745Z,75.30
2017-12-15T09:58:27.204Z,78.50
2017-12-15T10:00:54.640Z,76.60
2017-12-15T10:03:22.081Z,73.53
2017-12-15T10:05:50.281Z,71.63
2017-12-15T10:08:17.709Z,67.60
2017-12-15T10:10:45.932Z,68.77
2017-12-15T10:13:13.356Z,69.87
2017-12-15T10:15:40.789Z,62.43
2017-12-15T10:18:09.007Z,67.70
2017-12-15T10:20:36.606Z,62.87
2017-12-15T10:23:04.041Z,61.40
2017-12-15T10:25:31.588Z,55.53
2017-12-15T10:27:59.045Z,62.13
2017-12-15T10:30:26.506Z,71.47
2017-12-15T10:32:53.949Z,51.03
2017-12-15T10:35:21.397Z,57.53
2017-12-15T10:37:48.837Z,60.20
2017-12-15T10:40:17.150Z,65.37
2017-12-15T10:42:44.616Z,57.53
2017-12-15T10:45:12.037Z,62.67
2017-12-15T10:47:39.481Z,54.83
2017-12-15T10:50:07.701Z,59.83
2017-12-15T10:52:35.133Z,64.83
2017-12-15T10:55:02.572Z,60.97
2017-12-15T10:57:30.785Z,65.80
2017-12-15T10:59:58.245Z,60.03
2017-12-15T11:02:25.693Z,57.60
2017-12-15T11:04:53.113Z,50.80
2017-12-15T11:07:21.312Z,52.33
2017-12-15T11:09:48.793Z,55.57
2017-12-15T11:12:16.221Z,55.47
2017-12-15T11:14:43.652Z,54.40
2017-12-15T11:17:11.876Z,54.80
2017-12-15T11:19:39.336Z,53.60
2017-12-15T11:22:06.769Z,54.73
2017-12-15T11:24:34.254Z,48.57
2017-12-15T11:27:02.489Z,49.00
2017-12-15T11:29:29.989Z,44.80
2017-12-15T11:31:57.428Z,53.60
2017-12-15T11:34:24.897Z,46.67
2017-12-15T11:36:52.335Z,48.53
2017-12-15T11:39:19.842Z,40.73
2017-12-15T11:41:47.377Z,48.90
2017-12-15T11:44:14.868Z,44.80
2017-12-15T11:46:42.398Z,46.47
2017-12-15T11:49:09.830Z,43.73
2017-12-15T11:51:37.261Z,47.10
2017-12-15T11:54:05.465Z,50.20
2017-12-15T11:56:32.907Z,39.83
2017-12-15T11:59:00.325Z,40.83
2017-12-15T12:01:27.778Z,39.83
2017-12-15T12:03:55.204Z,40.73
2017-12-15T12:06:22.659Z,40.13
2017-12-15T12:08:50.104Z,35.17
2017-12-15T12:11:17.569Z,45.33
2017-12-15T12:13:45.000Z,35.17
2017-12-15T12:16:12.449Z,40.43
2017-12-15T12:18:40.648Z,32.73
2017-12-15T12:21:08.089Z,36.60
2017-12-15T12:23:36.288Z,35.97
2017-12-15T12:26:03.724Z,36.67
2017-12-15T12:28:31.161Z,36.40
2017-12-15T12:30:59.363Z,42.00
2017-12-15T12:33:26.802Z,42.27
2017-12-15T12:35:54.269Z,39.87
2017-12-15T12:38:21.700Z,42.57
2017-12-15T12:40:49.889Z,47.20
2017-12-15T12:43:17.329Z,40.67
2017-12-15T12:45:45.536Z,43.27
2017-12-15T12:48:12.964Z,43.23
2017-12-15T12:50:41.157Z,45.87
2017-12-15T12:53:08.603Z,45.40
2017-12-15T12:55:36.794Z,45.70
2017-12-15T12:58:04.220Z,48.53
2017-12-15T13:00:32.457Z,46.77
2017-12-15T13:03:00.683Z,50.17
2017-12-15T13:05:28.889Z,42.33
2017-12-15T13:07:56.360Z,36.90
2017-12-15T13:10:23.785Z,37.33
2017-12-15T13:12:51.270Z,36.80
2017-12-15T13:15:18.716Z,34.07
2017-12-15T13:17:46.138Z,33.50
2017-12-15T13:20:14.334Z,37.47
2017-12-15T13:22:41.769Z,43.40
2017-12-15T13:25:09.965Z,37.87
2017-12-15T13:27:37.397Z,38.00
2017-12-15T13:30:05.603Z,30.63
2017-12-15T13:32:33.026Z,32.13
2017-12-15T13:35:01.223Z,33.67
2017-12-15T13:37:29.467Z,36.07
2017-12-15T13:39:56.901Z,31.80
2017-12-15T13:42:24.328Z,29.90
2017-12-15T13:44:51.786Z,30.73
2017-12-15T13:47:19.242Z,25.60
2017-12-15T13:49:46.669Z,29.83
2017-12-15T13:52:15.080Z,30.73
2017-12-15T13:54:42.548Z,27.40
2017-12-15T13:57:09.981Z,25.83
2017-12-15T13:59:37.425Z,27.37
2017-12-15T14:02:05.634Z,29.43
2017-12-15T14:04:33.065Z,29.97
2017-12-15T14:07:00.512Z,29.33
2017-12-15T14:09:28.005Z,28.43
2017-12-15T14:11:55.433Z,32.07
2017-12-15T14:14:23.125Z,31.13
2017-12-15T14:16:50.580Z,28.53
2017-12-15T14:19:18.018Z,27.80
2017-12-15T14:21:45.505Z,28.97
2017-12-15T14:24:12.929Z,31.23
2017-12-15T14:26:40.409Z,30.37
2017-12-15T14:29:07.857Z,31.03
2017-12-15T14:31:35.329Z,29.33
2017-12-15T14:34:02.785Z,32.40
2017-12-15T14:36:30.336Z,32.17
2017-12-15T14:38:57.803Z,30.87
2017-12-15T14:41:25.261Z,29.43
2017-12-15T14:43:52.697Z,33.77
2017-12-15T14:46:20.131Z,27.57
2017-12-15T14:48:51.814Z,29.63
2017-12-15T14:51:15.797Z,31.03
2017-12-15T14:53:43.236Z,33.13
2017-12-15T14:56:10.662Z,34.63
2017-12-15T14:58:38.884Z,41.73
2017-12-15T15:01:06.341Z,31.97
2017-12-15T15:03:33.808Z,30.37
2017-12-15T15:06:01.250Z,32.17
2017-12-15T15:08:28.720Z,34.37
2017-12-15T15:10:56.146Z,42.13
2017-12-15T15:13:23.581Z,32.20
2017-12-15T15:15:51.776Z,35.23
2017-12-15T15:18:19.218Z,34.43
2017-12-15T15:20:47.451Z,33.20
2017-12-15T15:23:14.890Z,30.90
2017-12-15T15:25:42.317Z,37.30
2017-12-15T15:28:09.761Z,32.10
2017-12-15T15:30:37.979Z,40.63
2017-12-15T15:33:05.416Z,34.27
2017-12-15T15:35:32.900Z,38.33
2017-12-15T15:38:00.353Z,35.83
2017-12-15T15:40:27.785Z,42.00
2017-12-15T15:42:55.265Z,38.30
2017-12-15T15:45:22.698Z,35.93
2017-12-15T15:47:50.127Z,40.37
2017-12-15T15:50:18.344Z,35.27
2017-12-15T15:52:45.780Z,41.23
2017-12-15T15:55:13.258Z,37.27
2017-12-15T15:57:40.681Z,37.83
2017-12-15T16:00:08.877Z,40.23
2017-12-15T16:02:36.301Z,36.93
2017-12-15T16:05:04.505Z,38.60
2017-12-15T16:07:31.937Z,32.40
2017-12-15T16:10:00.125Z,33.77
2017-12-15T16:12:28.335Z,34.20
2017-12-15T16:14:55.765Z,31.57
2017-12-15T16:17:23.232Z,35.00
2017-12-15T16:19:51.422Z,36.50
2017-12-15T16:22:18.849Z,37.30
2017-12-15T16:24:46.281Z,34.67
2017-12-15T16:27:13.726Z,41.33
2017-12-15T16:29:41.156Z,34.90
2017-12-15T16:32:08.581Z,42.00
2017-12-15T16:34:36.022Z,55.37
2017-12-15T16:37:04.227Z,56.27
2017-12-15T16:39:31.701Z,52.13
2017-12-15T16:41:59.152Z,54.17
2017-12-15T16:44:26.569Z,55.83
2017-12-15T16:46:54.812Z,48.23
2017-12-15T16:49:22.257Z,50.10
2017-12-15T16:51:49.690Z,47.50
2017-12-15T16:54:17.155Z,52.67
2017-12-15T16:56:44.589Z,49.53
2017-12-15T16:59:12.030Z,48.83
2017-12-15T17:01:40.222Z,48.27
2017-12-15T17:04:07.692Z,53.80
2017-12-15T17:06:35.110Z,55.10
2017-12-15T17:09:03.302Z,57.20
2017-12-15T17:11:30.742Z,59.07
2017-12-15T17:13:58.953Z,52.70
2017-12-15T17:16:26.377Z,55.00
2017-12-15T17:18:54.685Z,70.17
2017-12-15T17:21:22.152Z,65.43
2017-12-15T17:23:49.604Z,61.63
2017-12-15T17:26:17.377Z,73.63
2017-12-15T17:28:44.832Z,66.57
2017-12-15T17:31:12.273Z,70.97
2017-12-15T17:33:39.744Z,63.20
2017-12-15T17:36:07.204Z,65.03
2017-12-15T17:38:35.185Z,62.87
2017-12-15T17:41:02.736Z,64.80
2017-12-15T17:43:30.281Z,62.60
2017-12-15T17:45:57.696Z,61.03
2017-12-15T17:48:25.910Z,60.53
2017-12-15T17:50:53.333Z,58.43
2017-12-15T17:53:21.530Z,76.40
2017-12-15T17:55:48.973Z,103.37
2017-12-15T17:58:17.169Z,92.20
2017-12-15T18:00:44.597Z,60.57
2017-12-15T18:03:12.813Z,60.70
2017-12-15T18:05:40.253Z,62.67
2017-12-15T18:08:07.685Z,98.37
2017-12-15T18:10:35.892Z,94.30
2017-12-15T18:13:03.318Z,88.60
2017-12-15T18:15:31.509Z,60.47
2017-12-15T18:17:58.959Z,61.23
2017-12-15T18:20:27.147Z,67.60
2017-12-15T18:22:54.629Z,65.80
2017-12-15T18:25:22.845Z,60.27
2017-12-15T18:27:51.034Z,54.80
2017-12-15T18:30:19.236Z,61.10
2017-12-15T18:32:46.677Z,58.07
2017-12-15T18:35:14.101Z,63.07
2017-12-15T18:37:42.309Z,57.90
2017-12-15T18:40:09.749Z,57.93
2017-12-15T18:42:37.945Z,67.63
2017-12-15T18:45:05.374Z,67.90
2017-12-15T18:47:33.619Z,62.50
2017-12-15T18:50:01.045Z,78.13
2017-12-15T18:52:28.480Z,76.23
2017-12-15T18:54:55.917Z,90.57
2017-12-15T18:57:24.118Z,96.53
2017-12-15T18:59:51.636Z,85.60
2017-12-15T19:02:19.065Z,77.30
2017-12-15T19:04:46.502Z,91.33
2017-12-15T19:07:13.937Z,273.13
2017-12-15T19:09:41.433Z,94.50
2017-12-15T19:12:08.889Z,77.30
2017-12-15T19:14:36.317Z,68.90
2017-12-15T19:17:03.764Z,81.83
2017-12-15T19:19:31.197Z,73.27
2017-12-15T19:21:58.630Z,78.17
2017-12-15T19:24:26.843Z,74.40
2017-12-15T19:26:55.044Z,87.13
2017-12-15T19:29:22.464Z,69.10
2017-12-15T19:31:50.669Z,70.43
2017-12-15T19:34:18.105Z,74.50
2017-12-15T19:36:46.302Z,68.80
2017-12-15T19:39:13.745Z,89.20
2017-12-15T19:41:41.169Z,88.60
2017-12-15T19:44:08.605Z,59.43
2017-12-15T19:46:36.046Z,60.13
2017-12-15T19:49:03.494Z,63.83
2017-12-15T19:51:31.270Z,88.27
2017-12-15T19:53:58.716Z,68.03
2017-12-15T19:56:26.156Z,75.27
2017-12-15T19:58:53.579Z,80.70
2017-12-15T20:01:21.021Z,73.37
2017-12-15T20:03:48.474Z,65.37
2017-12-15T20:06:15.900Z,69.63
2017-12-15T20:08:43.337Z,64.73
2017-12-15T20:11:10.769Z,78.07
2017-12-15T20:13:38.983Z,70.97
2017-12-15T20:16:06.417Z,86.43
2017-12-15T20:18:34.640Z,81.87
2017-12-15T20:21:02.838Z,82.57
2017-12-15T20:23:30.280Z,80.47
2017-12-15T20:25:58.476Z,72.17
2017-12-15T20:28:25.913Z,67.33
2017-12-15T20:30:53.345Z,68.63
2017-12-15T20:33:20.780Z,71.67
2017-12-15T20:35:48.217Z,73.40
2017-12-15T20:38:16.426Z,70.30
2017-12-15T20:40:43.869Z,74.57
2017-12-15T20:43:11.297Z,76.17
2017-12-15T20:45:39.524Z,69.80
2017-12-15T20:48:06.941Z,82.87
2017-12-15T20:50:35.146Z,67.87
2017-12-15T20:53:02.591Z,77.97
2017-12-15T20:55:30.018Z,75.73
2017-12-15T20:57:58.212Z,84.40
2017-12-15T21:00:25.660Z,82.47
2017-12-15T21:02:53.860Z,78.03
2017-12-15T21:05:21.282Z,78.13
2017-12-15T21:07:49.500Z,82.20
2017-12-15T21:10:16.957Z,67.20
2017-12-15T21:12:44.384Z,67.30
2017-12-15T21:15:12.589Z,91.50
2017-12-15T21:17:40.025Z,78.00
2017-12-15T21:20:07.453Z,76.20
2017-12-15T21:22:34.992Z,61.70
2017-12-15T21:25:02.429Z,68.77
2017-12-15T21:27:29.877Z,62.97
2017-12-15T21:29:57.328Z,87.90
2017-12-15T21:32:25.589Z,96.87
2017-12-15T21:34:53.025Z,77.17
2017-12-15T21:37:21.234Z,84.00
2017-12-15T21:39:48.668Z,121.37
2017-12-15T21:42:16.101Z,90.20
2017-12-15T21:44:43.541Z,125.17
2017-12-15T21:47:10.976Z,78.70
2017-12-15T21:49:38.401Z,81.73
2017-12-15T21:52:05.841Z,87.10
2017-12-15T21:54:34.050Z,75.90
2017-12-15T21:57:01.473Z,96.43
2017-12-15T21:59:29.689Z,97.40
2017-12-15T22:01:57.114Z,80.70
2017-12-15T22:04:24.537Z,80.40
2017-12-15T22:06:51.985Z,88.10
2017-12-15T22:09:19.409Z,73.07
2017-12-15T22:11:46.873Z,77.63
2017-12-15T22:14:15.481Z,90.73
2017-12-15T22:16:42.914Z,109.30
2017-12-15T22:19:10.660Z,86.53
2017-12-15T22:21:38.850Z,99.33
2017-12-15T22:24:06.429Z,124.60
2017-12-15T22:26:34.668Z,103.00
2017-12-15T22:29:02.109Z,137.97
2017-12-15T22:31:29.536Z,124.33
2017-12-15T22:33:56.965Z,113.20
2017-12-15T22:36:24.736Z,135.93
2017-12-15T22:38:52.167Z,170.23
2017-12-15T22:41:19.600Z,175.50
2017-12-15T22:43:47.812Z,116.80
2017-12-15T22:46:15.295Z,208.07
2017-12-15T22:48:42.765Z,114.73
2017-12-15T22:51:11.129Z,127.10
2017-12-15T22:53:38.557Z,121.90
2017-12-15T22:56:06.003Z,160.43
2017-12-15T22:58:33.446Z,123.70
2017-12-15T23:01:00.873Z,138.67
2017-12-15T23:03:29.186Z,195.93
2017-12-15T23:05:56.973Z,190.20
2017-12-15T23:08:24.406Z,172.33
2017-12-15T23:10:52.098Z,149.83
2017-12-15T23:13:19.526Z,183.50
2017-12-15T23:15:46.953Z,205.97
2017-12-15T23:18:15.162Z,151.50
2017-12-15T23:20:42.602Z,138.83
2017-12-15T23:23:10.807Z,130.13
2017-12-15T23:25:38.239Z,122.07
2017-12-15T23:28:06.442Z,130.37
2017-12-15T23:30:33.889Z,175.37
2017-12-15T23:33:01.305Z,129.97
2017-12-15T23:35:29.519Z,125.80
2017-12-15T23:37:57.535Z,124.50
2017-12-15T23:40:24.961Z,135.33
2017-12-15T23:42:52.721Z,149.60
2017-12-15T23:45:20.177Z,126.87
2017-12-15T23:47:47.592Z,161.07
2017-12-15T23:50:15.809Z,129.43
2017-12-15T23:52:43.250Z,110.90
2017-12-15T23:55:22.557Z,118.53
2017-12-15T23:57:50.768Z,129.87
